This is the latest recevied weather packets stored in our database for station/object AJ1L. If no packets are shown the sender has not sent any weather packets the latest 1 day(s).
| Time | Temp. | Humidity | Pressure | Rain* | Wind** | Luminosity | Snow |
|---|---|---|---|---|---|---|---|
| 1778071039 | 15.56° C | 81% | 1010.7 hPa | 0 mm | - | - | - |
| 1778066038 | 14.44° C | 86% | 1011.3 hPa | 0 mm | - | - | - |
| 1778063037 | 13.89° C | 87% | 1011.2 hPa | 0 mm | - | - | - |
| 1778062039 | 13.89° C | 88% | 1011.2 hPa | 0 mm | - | - | - |
| 1778060038 | 13.89° C | 87% | 1011 hPa | 0 mm | - | - | - |
| 1778059038 | 13.89° C | 87% | 1011.1 hPa | 0 mm | - | - | - |
| 1778057038 | 13.89° C | 86% | 1011.3 hPa | 0 mm | - | - | - |
| 1778056037 | 14.44° C | 86% | 1011.1 hPa | 0 mm | - | - | - |
| 1778055039 | 14.44° C | 85% | 1011.2 hPa | 0 mm | - | - | - |
| 1778054038 | 14.44° C | 85% | 1011.2 hPa | 0 mm | - | - | - |
| 1778053037 | 14.44° C | 84% | 1011.2 hPa | 0 mm | - | - | - |
| 1778052038 | 14.44° C | 84% | 1011 hPa | 0 mm | - | - | - |
| 1778051038 | 14.44° C | 83% | 1011.1 hPa | 0 mm | - | - | - |
| 1778049039 | 14.44° C | 82% | 1011 hPa | 0 mm | - | - | - |
| 1778046037 | 14.44° C | 81% | 1011.3 hPa | 0 mm | - | - | - |
| 1778043037 | 14.44° C | 79% | 1011.6 hPa | 0 mm | - | - | - |
| 1778040037 | 14.44° C | 76% | 1011.5 hPa | 0 mm | - | - | - |
| 1778037036 | 14.44° C | 73% | 1011.4 hPa | 0 mm | - | - | - |
| 1778034650 | 14.44° C | 72% | 1011.3 hPa | 0 mm | - | - | - |
| 1778031650 | 15° C | 72% | 1011.2 hPa | 0 mm | - | - | - |
| 1778026649 | 15° C | 71% | 1010.2 hPa | 0 mm | - | - | - |
| 1778000649 | 24.44° C | 48% | 1009.3 hPa | 0 mm | - | - | - |
| 1777996649 | 24.44° C | 48% | 1009.8 hPa | 0 mm | - | - | - |
| 1777992649 | 21.67° C | 56% | 1010.1 hPa | 0 mm | - | - | - |
* Rain latest hour (hover to see other rain measurements)
** Current wind speed in m/s (hover to see current wind gust speed)